sensor_id;sensor_type;location;lat;lon;timestamp;P1;durP1;ratioP1;P2;durP2;ratioP2
31087;SDS011;17745;55.914;37.554;2023-02-27T00:40:23;9.13;;;6.25;;
31087;SDS011;17745;55.914;37.554;2023-02-27T00:43:01;8.27;;;5.40;;
31087;SDS011;17745;55.914;37.554;2023-02-27T00:45:59;8.23;;;5.85;;
31087;SDS011;17745;55.914;37.554;2023-02-27T00:48:57;10.32;;;5.95;;
31087;SDS011;17745;55.914;37.554;2023-02-27T00:51:57;10.55;;;6.45;;
31087;SDS011;17745;55.914;37.554;2023-02-27T00:54:49;15.13;;;7.32;;
31087;SDS011;17745;55.914;37.554;2023-02-27T00:57:33;8.32;;;6.28;;
31087;SDS011;17745;55.914;37.554;2023-02-27T01:00:07;10.13;;;6.65;;
31087;SDS011;17745;55.914;37.554;2023-02-27T01:02:52;10.65;;;7.12;;
31087;SDS011;17745;55.914;37.554;2023-02-27T01:05:23;8.05;;;6.00;;
31087;SDS011;17745;55.914;37.554;2023-02-27T01:08:13;8.25;;;6.03;;
31087;SDS011;17745;55.914;37.554;2023-02-27T01:27:55;10.57;;;6.60;;
31087;SDS011;17745;55.914;37.554;2023-02-27T01:30:30;9.93;;;6.95;;
31087;SDS011;17745;55.914;37.554;2023-02-27T01:33:29;8.13;;;6.12;;
31087;SDS011;17745;55.914;37.554;2023-02-27T01:36:18;9.40;;;6.65;;
31087;SDS011;17745;55.914;37.554;2023-02-27T01:39:16;9.43;;;6.62;;
31087;SDS011;17745;55.914;37.554;2023-02-27T01:41:57;10.25;;;6.62;;
31087;SDS011;17745;55.914;37.554;2023-02-27T01:51:21;10.52;;;6.95;;
31087;SDS011;17745;55.914;37.554;2023-02-27T01:54:25;12.68;;;6.60;;
31087;SDS011;17745;55.914;37.554;2023-02-27T01:57:38;10.38;;;6.85;;
31087;SDS011;17745;55.914;37.554;2023-02-27T02:00:44;9.95;;;7.12;;
31087;SDS011;17745;55.914;37.554;2023-02-27T02:03:50;9.93;;;6.87;;
31087;SDS011;17745;55.914;37.554;2023-02-27T02:49:15;12.80;;;7.75;;
31087;SDS011;17745;55.914;37.554;2023-02-27T02:52:14;10.73;;;7.60;;
31087;SDS011;17745;55.914;37.554;2023-02-27T02:55:05;12.57;;;7.37;;
31087;SDS011;17745;55.914;37.554;2023-02-27T02:58:18;19.83;;;8.30;;
31087;SDS011;17745;55.914;37.554;2023-02-27T03:01:34;13.68;;;7.90;;
31087;SDS011;17745;55.914;37.554;2023-02-27T03:07:52;7.80;;;5.68;;
31087;SDS011;17745;55.914;37.554;2023-02-27T03:11:00;10.80;;;7.82;;
31087;SDS011;17745;55.914;37.554;2023-02-27T03:14:10;12.77;;;7.18;;
31087;SDS011;17745;55.914;37.554;2023-02-27T03:16:55;17.40;;;8.68;;
31087;SDS011;17745;55.914;37.554;2023-02-27T03:20:04;11.38;;;7.62;;
31087;SDS011;17745;55.914;37.554;2023-02-27T03:29:52;11.55;;;7.45;;
31087;SDS011;17745;55.914;37.554;2023-02-27T03:33:11;13.65;;;6.87;;
31087;SDS011;17745;55.914;37.554;2023-02-27T03:36:30;12.07;;;7.75;;
31087;SDS011;17745;55.914;37.554;2023-02-27T03:43:20;12.73;;;8.48;;
31087;SDS011;17745;55.914;37.554;2023-02-27T04:58:11;15.32;;;8.60;;
31087;SDS011;17745;55.914;37.554;2023-02-27T05:05:12;10.82;;;8.10;;
31087;SDS011;17745;55.914;37.554;2023-02-27T05:43:18;13.95;;;7.68;;
31087;SDS011;17745;55.914;37.554;2023-02-27T05:46:32;13.77;;;8.20;;
31087;SDS011;17745;55.914;37.554;2023-02-27T05:50:06;18.23;;;8.85;;
31087;SDS011;17745;55.914;37.554;2023-02-27T05:53:56;10.80;;;7.40;;
31087;SDS011;17745;55.914;37.554;2023-02-27T06:07:43;14.02;;;8.00;;
31087;SDS011;17745;55.914;37.554;2023-02-27T06:10:37;13.62;;;8.35;;
31087;SDS011;17745;55.914;37.554;2023-02-27T06:13:45;13.55;;;8.43;;
31087;SDS011;17745;55.914;37.554;2023-02-27T06:17:36;13.18;;;8.85;;
31087;SDS011;17745;55.914;37.554;2023-02-27T06:27:40;11.93;;;8.15;;
31087;SDS011;17745;55.914;37.554;2023-02-27T06:30:16;12.25;;;7.90;;
31087;SDS011;17745;55.914;37.554;2023-02-27T06:32:50;10.63;;;7.78;;
31087;SDS011;17745;55.914;37.554;2023-02-27T06:35:28;11.18;;;8.45;;
31087;SDS011;17745;55.914;37.554;2023-02-27T06:38:08;13.07;;;8.48;;
31087;SDS011;17745;55.914;37.554;2023-02-27T06:41:19;12.95;;;7.60;;
31087;SDS011;17745;55.914;37.554;2023-02-27T06:47:28;12.10;;;7.95;;
31087;SDS011;17745;55.914;37.554;2023-02-27T06:50:59;11.55;;;7.22;;
31087;SDS011;17745;55.914;37.554;2023-02-27T06:54:49;12.65;;;7.15;;
31087;SDS011;17745;55.914;37.554;2023-02-27T06:58:12;11.93;;;7.82;;
31087;SDS011;17745;55.914;37.554;2023-02-27T07:00:47;14.98;;;8.10;;
31087;SDS011;17745;55.914;37.554;2023-02-27T07:07:13;11.52;;;7.62;;
31087;SDS011;17745;55.914;37.554;2023-02-27T07:09:56;12.52;;;7.65;;
31087;SDS011;17745;55.914;37.554;2023-02-27T07:12:33;11.80;;;7.00;;
31087;SDS011;17745;55.914;37.554;2023-02-27T07:15:29;11.80;;;7.75;;
31087;SDS011;17745;55.914;37.554;2023-02-27T07:18:27;13.07;;;7.53;;
31087;SDS011;17745;55.914;37.554;2023-02-27T07:21:20;12.20;;;7.80;;
31087;SDS011;17745;55.914;37.554;2023-02-27T07:24:10;11.30;;;7.62;;
31087;SDS011;17745;55.914;37.554;2023-02-27T07:27:25;10.63;;;7.30;;
31087;SDS011;17745;55.914;37.554;2023-02-27T07:33:56;11.00;;;7.62;;
31087;SDS011;17745;55.914;37.554;2023-02-27T07:40:17;11.48;;;7.28;;
31087;SDS011;17745;55.914;37.554;2023-02-27T07:42:49;13.40;;;7.80;;
31087;SDS011;17745;55.914;37.554;2023-02-27T07:45:23;11.65;;;7.60;;
31087;SDS011;17745;55.914;37.554;2023-02-27T07:47:56;12.02;;;6.43;;
31087;SDS011;17745;55.914;37.554;2023-02-27T07:50:40;11.25;;;7.05;;
31087;SDS011;17745;55.914;37.554;2023-02-27T07:53:18;12.57;;;7.65;;
31087;SDS011;17745;55.914;37.554;2023-02-27T07:56:32;8.15;;;6.03;;
31087;SDS011;17745;55.914;37.554;2023-02-27T07:59:21;8.35;;;5.57;;
31087;SDS011;17745;55.914;37.554;2023-02-27T08:01:53;10.15;;;7.55;;
31087;SDS011;17745;55.914;37.554;2023-02-27T08:05:03;11.35;;;7.32;;
31087;SDS011;17745;55.914;37.554;2023-02-27T08:07:39;10.90;;;7.30;;
31087;SDS011;17745;55.914;37.554;2023-02-27T08:10:12;12.05;;;5.85;;
31087;SDS011;17745;55.914;37.554;2023-02-27T08:13:08;15.05;;;6.78;;
31087;SDS011;17745;55.914;37.554;2023-02-27T08:15:51;6.55;;;4.50;;
31087;SDS011;17745;55.914;37.554;2023-02-27T08:18:34;8.68;;;5.82;;
31087;SDS011;17745;55.914;37.554;2023-02-27T08:21:10;10.20;;;5.85;;
31087;SDS011;17745;55.914;37.554;2023-02-27T08:23:52;13.02;;;7.57;;
31087;SDS011;17745;55.914;37.554;2023-02-27T08:26:42;18.50;;;10.43;;
31087;SDS011;17745;55.914;37.554;2023-02-27T08:35:39;44.33;;;21.52;;
31087;SDS011;17745;55.914;37.554;2023-02-27T08:41:13;20.37;;;11.77;;
31087;SDS011;17745;55.914;37.554;2023-02-27T08:58:00;13.38;;;7.47;;
31087;SDS011;17745;55.914;37.554;2023-02-27T09:01:05;6.45;;;4.72;;
31087;SDS011;17745;55.914;37.554;2023-02-27T09:04:13;11.20;;;6.78;;
31087;SDS011;17745;55.914;37.554;2023-02-27T09:07:01;8.93;;;5.97;;
31087;SDS011;17745;55.914;37.554;2023-02-27T09:09:39;6.47;;;4.47;;
31087;SDS011;17745;55.914;37.554;2023-02-27T09:12:19;9.35;;;6.20;;
31087;SDS011;17745;55.914;37.554;2023-02-27T09:15:03;9.75;;;5.57;;
31087;SDS011;17745;55.914;37.554;2023-02-27T09:18:12;7.22;;;4.57;;
31087;SDS011;17745;55.914;37.554;2023-02-27T09:20:54;7.82;;;4.97;;
31087;SDS011;17745;55.914;37.554;2023-02-27T09:23:34;6.68;;;4.53;;
31087;SDS011;17745;55.914;37.554;2023-02-27T09:26:18;9.77;;;6.05;;
31087;SDS011;17745;55.914;37.554;2023-02-27T09:29:11;7.85;;;5.07;;
31087;SDS011;17745;55.914;37.554;2023-02-27T09:32:08;9.05;;;5.10;;
31087;SDS011;17745;55.914;37.554;2023-02-27T09:45:41;8.20;;;4.87;;
31087;SDS011;17745;55.914;37.554;2023-02-27T09:48:38;6.87;;;4.65;;
31087;SDS011;17745;55.914;37.554;2023-02-27T09:51:32;8.85;;;5.82;;
31087;SDS011;17745;55.914;37.554;2023-02-27T09:54:05;7.62;;;5.43;;
31087;SDS011;17745;55.914;37.554;2023-02-27T09:56:46;5.85;;;4.35;;
31087;SDS011;17745;55.914;37.554;2023-02-27T09:59:28;7.62;;;5.15;;
31087;SDS011;17745;55.914;37.554;2023-02-27T10:02:27;7.43;;;5.03;;
31087;SDS011;17745;55.914;37.554;2023-02-27T10:05:41;13.55;;;7.25;;
31087;SDS011;17745;55.914;37.554;2023-02-27T10:08:21;10.20;;;5.97;;
31087;SDS011;17745;55.914;37.554;2023-02-27T10:11:12;8.93;;;5.95;;
31087;SDS011;17745;55.914;37.554;2023-02-27T10:13:59;9.38;;;5.25;;
31087;SDS011;17745;55.914;37.554;2023-02-27T10:16:56;7.35;;;5.12;;
31087;SDS011;17745;55.914;37.554;2023-02-27T10:22:47;9.82;;;5.60;;
31087;SDS011;17745;55.914;37.554;2023-02-27T10:25:46;7.95;;;4.70;;
31087;SDS011;17745;55.914;37.554;2023-02-27T10:28:25;6.40;;;4.45;;
31087;SDS011;17745;55.914;37.554;2023-02-27T10:31:47;8.50;;;4.68;;
31087;SDS011;17745;55.914;37.554;2023-02-27T10:34:28;8.43;;;5.35;;
31087;SDS011;17745;55.914;37.554;2023-02-27T10:37:27;6.05;;;4.30;;
31087;SDS011;17745;55.914;37.554;2023-02-27T10:40:03;5.10;;;3.83;;
31087;SDS011;17745;55.914;37.554;2023-02-27T10:42:52;9.45;;;5.47;;
31087;SDS011;17745;55.914;37.554;2023-02-27T10:45:23;5.40;;;3.90;;
31087;SDS011;17745;55.914;37.554;2023-02-27T10:47:57;7.00;;;4.87;;
31087;SDS011;17745;55.914;37.554;2023-02-27T10:50:28;9.02;;;6.00;;
31087;SDS011;17745;55.914;37.554;2023-02-27T10:53:20;7.25;;;4.72;;
31087;SDS011;17745;55.914;37.554;2023-02-27T10:55:57;8.32;;;4.78;;
31087;SDS011;17745;55.914;37.554;2023-02-27T12:14:03;8.05;;;5.10;;
31087;SDS011;17745;55.914;37.554;2023-02-27T12:16:45;7.68;;;4.95;;
31087;SDS011;17745;55.914;37.554;2023-02-27T12:19:20;5.97;;;4.07;;
31087;SDS011;17745;55.914;37.554;2023-02-27T12:22:07;10.60;;;4.78;;
31087;SDS011;17745;55.914;37.554;2023-02-27T12:24:52;8.45;;;4.25;;
31087;SDS011;17745;55.914;37.554;2023-02-27T12:27:32;7.43;;;4.75;;
31087;SDS011;17745;55.914;37.554;2023-02-27T12:30:16;6.22;;;4.30;;
31087;SDS011;17745;55.914;37.554;2023-02-27T12:36:00;7.00;;;4.68;;
31087;SDS011;17745;55.914;37.554;2023-02-27T12:38:45;6.43;;;4.62;;
31087;SDS011;17745;55.914;37.554;2023-02-27T13:01:43;7.20;;;5.55;;
31087;SDS011;17745;55.914;37.554;2023-02-27T13:05:02;8.13;;;5.20;;
31087;SDS011;17745;55.914;37.554;2023-02-27T13:15:00;9.05;;;5.85;;
31087;SDS011;17745;55.914;37.554;2023-02-27T13:25:58;8.10;;;5.60;;
31087;SDS011;17745;55.914;37.554;2023-02-27T13:29:13;7.65;;;4.95;;
31087;SDS011;17745;55.914;37.554;2023-02-27T13:32:20;10.50;;;5.60;;
31087;SDS011;17745;55.914;37.554;2023-02-27T13:35:18;8.88;;;5.65;;
31087;SDS011;17745;55.914;37.554;2023-02-27T13:38:40;10.48;;;5.95;;
31087;SDS011;17745;55.914;37.554;2023-02-27T13:56:39;11.38;;;6.30;;
31087;SDS011;17745;55.914;37.554;2023-02-27T13:59:35;9.93;;;6.43;;
31087;SDS011;17745;55.914;37.554;2023-02-27T14:02:44;7.55;;;5.22;;
31087;SDS011;17745;55.914;37.554;2023-02-27T14:05:43;10.27;;;6.78;;
31087;SDS011;17745;55.914;37.554;2023-02-27T14:08:46;11.63;;;7.20;;
31087;SDS011;17745;55.914;37.554;2023-02-27T14:26:50;10.63;;;6.43;;
31087;SDS011;17745;55.914;37.554;2023-02-27T14:29:47;7.97;;;5.28;;
31087;SDS011;17745;55.914;37.554;2023-02-27T14:32:39;12.20;;;8.52;;
31087;SDS011;17745;55.914;37.554;2023-02-27T14:35:49;9.45;;;6.10;;
31087;SDS011;17745;55.914;37.554;2023-02-27T14:39:02;11.12;;;7.90;;
31087;SDS011;17745;55.914;37.554;2023-02-27T14:41:47;11.77;;;8.32;;
31087;SDS011;17745;55.914;37.554;2023-02-27T14:44:39;10.32;;;6.43;;
31087;SDS011;17745;55.914;37.554;2023-02-27T14:47:18;11.40;;;7.55;;
31087;SDS011;17745;55.914;37.554;2023-02-27T14:49:59;9.88;;;6.45;;
31087;SDS011;17745;55.914;37.554;2023-02-27T14:52:44;10.97;;;6.50;;
31087;SDS011;17745;55.914;37.554;2023-02-27T14:55:20;10.45;;;6.70;;
31087;SDS011;17745;55.914;37.554;2023-02-27T14:58:08;10.75;;;7.53;;
31087;SDS011;17745;55.914;37.554;2023-02-27T15:01:02;13.73;;;7.00;;
31087;SDS011;17745;55.914;37.554;2023-02-27T15:04:21;9.00;;;6.12;;
31087;SDS011;17745;55.914;37.554;2023-02-27T15:07:15;8.52;;;5.45;;
31087;SDS011;17745;55.914;37.554;2023-02-27T15:10:04;11.57;;;6.80;;
31087;SDS011;17745;55.914;37.554;2023-02-27T15:12:44;9.52;;;5.97;;
31087;SDS011;17745;55.914;37.554;2023-02-27T15:15:33;12.80;;;6.03;;
31087;SDS011;17745;55.914;37.554;2023-02-27T15:18:29;8.13;;;5.30;;
31087;SDS011;17745;55.914;37.554;2023-02-27T15:21:15;8.18;;;5.82;;
31087;SDS011;17745;55.914;37.554;2023-02-27T15:24:22;11.75;;;6.10;;
31087;SDS011;17745;55.914;37.554;2023-02-27T15:27:27;8.55;;;5.65;;
31087;SDS011;17745;55.914;37.554;2023-02-27T15:36:48;8.23;;;4.87;;
31087;SDS011;17745;55.914;37.554;2023-02-27T15:39:47;9.88;;;6.82;;
31087;SDS011;17745;55.914;37.554;2023-02-27T15:42:36;8.68;;;6.03;;
31087;SDS011;17745;55.914;37.554;2023-02-27T15:46:12;10.65;;;6.03;;
31087;SDS011;17745;55.914;37.554;2023-02-27T16:12:49;11.02;;;7.32;;
31087;SDS011;17745;55.914;37.554;2023-02-27T16:15:59;9.15;;;5.62;;
31087;SDS011;17745;55.914;37.554;2023-02-27T16:18:35;11.40;;;7.75;;
31087;SDS011;17745;55.914;37.554;2023-02-27T17:52:33;7.75;;;5.32;;
31087;SDS011;17745;55.914;37.554;2023-02-27T17:55:13;9.73;;;6.68;;
31087;SDS011;17745;55.914;37.554;2023-02-27T17:58:06;8.15;;;5.55;;
31087;SDS011;17745;55.914;37.554;2023-02-27T18:01:20;11.63;;;7.68;;
31087;SDS011;17745;55.914;37.554;2023-02-27T18:04:29;8.75;;;5.55;;
31087;SDS011;17745;55.914;37.554;2023-02-27T18:24:37;12.52;;;6.47;;
31087;SDS011;17745;55.914;37.554;2023-02-27T18:27:27;11.77;;;7.65;;
31087;SDS011;17745;55.914;37.554;2023-02-27T18:30:19;11.45;;;6.75;;
31087;SDS011;17745;55.914;37.554;2023-02-27T18:33:04;13.13;;;7.07;;
31087;SDS011;17745;55.914;37.554;2023-02-27T18:35:47;9.35;;;6.37;;
31087;SDS011;17745;55.914;37.554;2023-02-27T18:38:24;13.93;;;6.68;;
31087;SDS011;17745;55.914;37.554;2023-02-27T18:40:57;28.10;;;8.23;;
31087;SDS011;17745;55.914;37.554;2023-02-27T18:43:31;33.35;;;9.32;;
31087;SDS011;17745;55.914;37.554;2023-02-27T18:46:01;20.40;;;7.28;;
31087;SDS011;17745;55.914;37.554;2023-02-27T18:48:32;24.92;;;8.65;;
31087;SDS011;17745;55.914;37.554;2023-02-27T18:51:04;26.62;;;11.07;;
31087;SDS011;17745;55.914;37.554;2023-02-27T18:53:39;24.73;;;11.57;;
31087;SDS011;17745;55.914;37.554;2023-02-27T18:56:11;25.12;;;15.30;;
31087;SDS011;17745;55.914;37.554;2023-02-27T18:58:45;31.80;;;19.70;;
31087;SDS011;17745;55.914;37.554;2023-02-27T19:01:29;31.73;;;20.88;;
31087;SDS011;17745;55.914;37.554;2023-02-27T19:04:17;46.53;;;17.05;;
31087;SDS011;17745;55.914;37.554;2023-02-27T19:06:49;30.60;;;15.02;;
31087;SDS011;17745;55.914;37.554;2023-02-27T19:09:20;29.12;;;14.48;;
31087;SDS011;17745;55.914;37.554;2023-02-27T19:12:15;15.88;;;9.70;;
31087;SDS011;17745;55.914;37.554;2023-02-27T19:14:55;16.90;;;8.30;;
31087;SDS011;17745;55.914;37.554;2023-02-27T19:17:26;17.27;;;8.73;;
31087;SDS011;17745;55.914;37.554;2023-02-27T19:20:02;18.85;;;9.05;;
31087;SDS011;17745;55.914;37.554;2023-02-27T19:23:04;14.05;;;7.80;;
31087;SDS011;17745;55.914;37.554;2023-02-27T19:26:17;13.65;;;8.25;;
31087;SDS011;17745;55.914;37.554;2023-02-27T19:29:17;13.48;;;7.45;;
31087;SDS011;17745;55.914;37.554;2023-02-27T19:35:41;16.50;;;10.73;;
31087;SDS011;17745;55.914;37.554;2023-02-27T19:38:26;18.92;;;12.18;;
31087;SDS011;17745;55.914;37.554;2023-02-27T19:41:06;18.40;;;12.82;;
31087;SDS011;17745;55.914;37.554;2023-02-27T19:44:09;18.62;;;10.88;;
31087;SDS011;17745;55.914;37.554;2023-02-27T19:47:15;17.33;;;10.52;;
31087;SDS011;17745;55.914;37.554;2023-02-27T19:49:46;18.05;;;11.40;;
31087;SDS011;17745;55.914;37.554;2023-02-27T19:52:41;17.95;;;12.00;;
31087;SDS011;17745;55.914;37.554;2023-02-27T19:55:14;17.73;;;10.80;;
31087;SDS011;17745;55.914;37.554;2023-02-27T19:58:01;13.55;;;8.73;;
31087;SDS011;17745;55.914;37.554;2023-02-27T20:00:44;13.15;;;8.30;;
31087;SDS011;17745;55.914;37.554;2023-02-27T20:03:45;14.15;;;7.43;;
31087;SDS011;17745;55.914;37.554;2023-02-27T20:06:53;18.48;;;8.75;;
31087;SDS011;17745;55.914;37.554;2023-02-27T20:12:24;12.85;;;8.45;;
31087;SDS011;17745;55.914;37.554;2023-02-27T20:15:11;12.73;;;8.02;;
31087;SDS011;17745;55.914;37.554;2023-02-27T20:17:44;16.23;;;8.45;;
31087;SDS011;17745;55.914;37.554;2023-02-27T20:20:13;11.38;;;8.30;;
31087;SDS011;17745;55.914;37.554;2023-02-27T20:23:40;14.40;;;8.00;;
31087;SDS011;17745;55.914;37.554;2023-02-27T20:26:55;13.95;;;7.78;;
31087;SDS011;17745;55.914;37.554;2023-02-27T20:30:49;11.18;;;7.15;;
31087;SDS011;17745;55.914;37.554;2023-02-27T20:33:30;10.93;;;7.32;;
31087;SDS011;17745;55.914;37.554;2023-02-27T20:36:14;11.00;;;7.37;;
31087;SDS011;17745;55.914;37.554;2023-02-27T21:07:30;16.02;;;9.60;;
31087;SDS011;17745;55.914;37.554;2023-02-27T21:10:08;14.75;;;9.45;;
31087;SDS011;17745;55.914;37.554;2023-02-27T21:12:44;13.50;;;8.80;;
